Time;durP1;ratioP1;P1;durP2;ratioP2;P2;SDS_P1;SDS_P2;PMS_P1;PMS_P2;Temp;Humidity;BMP_temperature;BMP_pressure;BME280_temperature;BME280_humidity;BME280_pressure;Samples;Min_cycle;Max_cycle;Signal;HPM_P1;HPM_P2
2022/04/13 00:00:11;;;;;;;8.07;2.50;;;;;;;14.52;54.51;101031.50;4975260;28;20126;-79
2022/04/13 00:02:37;;;;;;;9.02;2.60;;;;;;;14.53;54.51;101032.34;4976644;28;20058;-80
2022/04/13 00:05:02;;;;;;;5.95;2.60;;;;;;;14.52;54.57;101028.00;4977544;28;20081;-80
2022/04/13 00:07:28;;;;;;;5.13;2.50;;;;;;;14.50;54.75;101032.50;4977370;28;20023;-79
2022/04/13 00:09:54;;;;;;;7.28;2.75;;;;;;;14.49;54.90;101041.25;4978977;28;20038;-80
2022/04/13 00:12:19;;;;;;;7.78;2.22;;;;;;;14.46;54.72;101030.91;4977182;28;20093;-79
2022/04/13 00:14:44;;;;;;;7.63;2.35;;;;;;;14.46;54.66;101026.50;4977112;28;20018;-79
2022/04/13 00:17:09;;;;;;;7.15;2.40;;;;;;;14.44;54.70;101030.94;4977235;28;20077;-80
2022/04/13 00:19:35;;;;;;;5.57;2.30;;;;;;;14.42;54.99;101031.00;4960965;28;20022;-79
2022/04/13 00:22:00;;;;;;;9.68;2.40;;;;;;;14.41;55.44;101034.53;4957006;28;20355;-79
2022/04/13 00:24:25;;;;;;;8.00;2.53;;;;;;;14.40;55.12;101035.44;4977370;28;20051;-79
2022/04/13 00:26:51;;;;;;;4.68;2.15;;;;;;;14.38;55.37;101032.03;4980413;28;20034;-79
2022/04/13 00:29:16;;;;;;;5.03;2.50;;;;;;;14.35;55.78;101032.16;4976695;28;20113;-79
2022/04/13 00:31:42;;;;;;;6.45;2.40;;;;;;;14.33;55.69;101033.13;4977476;28;20113;-79
2022/04/13 00:34:07;;;;;;;6.30;2.22;;;;;;;14.31;55.29;101027.09;4980886;28;20037;-80
2022/04/13 00:36:32;;;;;;;7.43;2.60;;;;;;;14.30;55.54;101034.09;4975869;28;20035;-80
2022/04/13 00:38:57;;;;;;;11.95;2.72;;;;;;;14.29;55.81;101045.47;4975290;28;20041;-80
2022/04/13 00:41:23;;;;;;;7.22;2.63;;;;;;;14.27;56.14;101040.28;4976325;28;20118;-80
2022/04/13 00:44:05;;;;;;;8.10;2.63;;;;;;;14.26;55.26;101051.66;4976096;28;20034;-80
2022/04/13 00:46:31;;;;;;;6.70;2.38;;;;;;;14.24;56.27;101057.88;4976384;28;20074;-80
2022/04/13 00:48:57;;;;;;;6.90;2.80;;;;;;;14.22;55.97;101057.09;4977242;28;20512;-80
2022/04/13 00:51:23;;;;;;;7.47;2.55;;;;;;;14.20;56.56;101061.50;4977169;28;20062;-80
2022/04/13 00:53:50;;;;;;;6.97;3.30;;;;;;;14.17;56.50;101066.88;4977827;28;20088;-79
2022/04/13 00:56:23;;;;;;;7.28;2.67;;;;;;;14.14;56.74;101061.75;4976439;28;20022;-79
2022/04/13 00:58:52;;;;;;;8.07;2.50;;;;;;;14.09;57.02;101072.41;4958898;28;20130;-79
2022/04/13 01:01:18;;;;;;;6.32;2.50;;;;;;;14.05;57.79;101074.25;4975277;28;20030;-79
2022/04/13 01:03:44;;;;;;;6.60;3.08;;;;;;;13.97;58.31;101078.94;4976026;28;20035;-79
2022/04/13 01:06:10;;;;;;;7.45;2.90;;;;;;;13.90;57.71;101080.91;4976435;28;20026;-79
2022/04/13 01:08:37;;;;;;;5.68;2.78;;;;;;;13.86;57.88;101089.78;4977000;28;20022;-79
2022/04/13 01:11:03;;;;;;;9.82;3.30;;;;;;;13.81;58.22;101087.34;4980555;28;20035;-79
2022/04/13 01:13:28;;;;;;;8.93;3.25;;;;;;;13.77;58.55;101090.97;4977918;28;20041;-78
2022/04/13 01:15:53;;;;;;;7.03;3.00;;;;;;;13.74;58.64;101091.06;4974086;28;20033;-80
2022/04/13 01:18:19;;;;;;;8.15;3.17;;;;;;;13.73;58.74;101096.34;4956472;28;20506;-79
2022/04/13 01:20:49;;;;;;;6.57;2.83;;;;;;;13.71;58.36;101100.78;4975732;28;20023;-79
2022/04/13 01:23:14;;;;;;;9.80;3.03;;;;;;;13.70;58.51;101101.69;4977334;28;20034;-79
2022/04/13 01:25:47;;;;;;;10.20;3.40;;;;;;;13.69;58.37;101106.03;4978757;28;20085;-79
2022/04/13 01:28:13;;;;;;;7.63;3.33;;;;;;;13.69;58.42;101111.28;4978078;28;20436;-79
2022/04/13 02:20:52;;;;;;;10.20;3.88;;;;;;;13.50;60.68;101161.56;3576053;28;20065;-79
2022/04/13 02:23:17;;;;;;;10.57;4.63;;;;;;;13.49;60.85;101170.31;4977738;28;20034;-79
2022/04/13 02:25:42;;;;;;;13.38;4.60;;;;;;;13.49;61.07;101167.69;4979903;28;20487;-79
2022/04/13 02:28:08;;;;;;;9.68;4.38;;;;;;;13.48;61.17;101170.38;4975636;28;20031;-79
2022/04/13 02:30:33;;;;;;;7.70;4.07;;;;;;;13.47;61.43;101166.91;4973421;28;20407;-79
2022/04/13 02:32:59;;;;;;;11.30;4.65;;;;;;;13.45;61.50;101171.34;4973096;28;20026;-79
2022/04/13 02:35:25;;;;;;;13.57;4.78;;;;;;;13.44;61.64;101172.22;4972246;28;20031;-79
2022/04/13 02:37:50;;;;;;;10.27;4.68;;;;;;;13.42;61.61;101174.03;4972631;28;20045;-79
2022/04/13 02:40:16;;;;;;;9.70;4.18;;;;;;;13.41;61.85;101181.94;4974637;28;20054;-79
2022/04/13 02:42:42;;;;;;;10.90;4.53;;;;;;;13.40;62.11;101178.47;4972618;28;20030;-79
2022/04/13 02:45:08;;;;;;;10.35;4.43;;;;;;;13.38;61.91;101175.00;4973128;28;20449;-79
2022/04/13 02:47:34;;;;;;;10.73;4.40;;;;;;;13.36;62.13;101184.66;4977452;28;20023;-79
2022/04/13 02:50:02;;;;;;;9.85;4.82;;;;;;;13.35;62.20;101188.16;4977204;28;20022;-79
2022/04/13 02:52:29;;;;;;;8.57;4.55;;;;;;;13.33;62.32;101185.59;4976657;28;20109;-79
2022/04/13 02:54:55;;;;;;;15.50;4.90;;;;;;;13.32;62.66;101186.50;4982565;28;20457;-79
2022/04/13 02:57:20;;;;;;;12.05;4.50;;;;;;;13.32;62.57;101203.97;4976500;28;20073;-79
2022/04/13 02:59:48;;;;;;;9.60;4.88;;;;;;;13.30;62.73;101200.53;4984978;28;20026;-79
2022/04/13 03:02:14;;;;;;;8.30;4.95;;;;;;;13.25;62.98;101195.44;4959815;28;20022;-79
2022/04/13 03:04:43;;;;;;;10.57;5.00;;;;;;;13.23;62.98;101193.78;4976459;28;20113;-79
2022/04/13 03:07:12;;;;;;;12.93;5.10;;;;;;;13.18;63.01;101202.59;4976231;28;20027;-79
2022/04/13 03:09:38;;;;;;;12.88;5.10;;;;;;;13.15;63.22;101200.09;4978600;28;20026;-79
2022/04/13 03:12:04;;;;;;;11.43;5.50;;;;;;;13.12;63.35;101197.59;4975719;28;20015;-79
2022/04/13 03:14:29;;;;;;;12.05;5.40;;;;;;;13.09;63.59;101202.91;4976615;28;20109;-79
2022/04/13 03:16:54;;;;;;;9.50;4.55;;;;;;;13.06;63.50;101203.84;4982770;28;20114;-79
2022/04/13 03:19:20;;;;;;;10.90;5.00;;;;;;;13.04;63.84;101194.34;4976507;28;20026;-79
2022/04/13 03:21:50;;;;;;;11.20;5.53;;;;;;;13.02;63.96;101196.16;4976418;28;20094;-79
2022/04/13 03:24:15;;;;;;;9.63;4.95;;;;;;;12.97;64.18;101195.44;4958796;28;20109;-79
2022/04/13 03:26:40;;;;;;;15.88;5.45;;;;;;;12.94;64.28;101198.16;4976148;28;20553;-79
2022/04/13 03:29:05;;;;;;;12.23;5.05;;;;;;;12.89;64.52;101190.47;4978376;28;20033;-79
2022/04/13 03:31:31;;;;;;;10.55;5.57;;;;;;;12.84;64.59;101192.34;4978576;28;20026;-79
2022/04/13 03:33:56;;;;;;;11.55;5.13;;;;;;;12.78;64.30;101193.38;4976292;28;20047;-79
2022/04/13 03:36:21;;;;;;;9.25;5.03;;;;;;;12.72;65.04;101188.34;4978752;28;20022;-79
2022/04/13 03:38:47;;;;;;;11.73;5.22;;;;;;;12.64;65.32;101190.31;4976210;28;20093;-79
2022/04/13 03:41:12;;;;;;;9.63;5.25;;;;;;;12.55;65.50;101200.09;4977204;28;20424;-79
2022/04/13 03:43:37;;;;;;;7.30;4.93;;;;;;;12.47;65.43;101199.47;4975934;28;20031;-79
2022/04/13 03:46:03;;;;;;;8.48;5.22;;;;;;;12.40;65.62;101197.94;4975434;28;20022;-79
2022/04/13 03:48:28;;;;;;;8.70;4.90;;;;;;;12.34;66.35;101198.09;4975105;28;20117;-79
2022/04/13 03:50:55;;;;;;;10.27;5.20;;;;;;;12.26;65.70;101193.97;4975019;28;20159;-79
2022/04/13 03:53:21;;;;;;;9.02;4.93;;;;;;;12.16;66.05;101200.31;4957790;28;20081;-79
2022/04/13 03:55:46;;;;;;;13.10;5.38;;;;;;;12.08;66.23;101207.50;4981195;28;20026;-79
2022/04/13 03:58:11;;;;;;;8.85;5.35;;;;;;;12.01;67.51;101205.91;4975391;28;20038;-79
2022/04/13 04:00:36;;;;;;;11.93;5.47;;;;;;;11.93;67.45;101209.56;4975700;28;20030;-79
2022/04/13 04:03:02;;;;;;;10.07;5.40;;;;;;;11.89;67.65;101210.53;4980367;28;20475;-79
2022/04/13 04:05:27;;;;;;;15.40;6.25;;;;;;;11.84;67.85;101212.38;4975053;28;20090;-79
2022/04/13 04:07:52;;;;;;;14.20;5.63;;;;;;;11.81;68.08;101218.53;4974884;28;20115;-79
2022/04/13 04:10:17;;;;;;;11.35;5.47;;;;;;;11.76;68.44;101212.59;4975167;28;20039;-79
2022/04/13 04:12:43;;;;;;;13.50;5.72;;;;;;;11.73;67.36;101214.41;4975251;28;20100;-79
2022/04/13 04:15:09;;;;;;;10.75;5.15;;;;;;;11.66;68.72;101214.56;4982712;28;20485;-79
2022/04/13 04:17:35;;;;;;;11.02;5.13;;;;;;;11.62;68.34;101220.72;4980163;28;20058;-79
2022/04/13 04:20:01;;;;;;;9.38;5.65;;;;;;;11.56;68.83;101223.50;4975033;28;20073;-79
2022/04/13 04:22:26;;;;;;;13.35;5.50;;;;;;;11.52;68.70;101229.66;4977460;28;20128;-79
2022/04/13 04:24:51;;;;;;;13.95;5.82;;;;;;;11.46;68.91;101235.88;4974665;28;20070;-79
2022/04/13 04:27:17;;;;;;;10.45;6.03;;;;;;;11.39;69.03;101235.16;4974123;28;20726;-79
2022/04/13 04:29:42;;;;;;;11.10;5.80;;;;;;;11.34;69.66;101236.16;4978430;28;20027;-79
2022/04/13 04:32:08;;;;;;;11.10;5.78;;;;;;;11.30;69.79;101245.78;4976121;28;20540;-79
2022/04/13 04:34:33;;;;;;;13.00;6.13;;;;;;;11.27;69.59;101251.09;4974541;28;20027;-79
2022/04/13 04:36:59;;;;;;;16.20;5.68;;;;;;;11.23;69.06;101258.09;4974373;28;20098;-79
2022/04/13 04:39:24;;;;;;;12.80;5.53;;;;;;;11.19;68.82;101251.22;4974569;28;20497;-79
2022/04/13 04:41:49;;;;;;;14.45;5.55;;;;;;;11.13;68.92;101260.91;4982944;28;20037;-79
2022/04/13 04:44:15;;;;;;;10.18;5.72;;;;;;;11.06;68.86;101263.66;4975961;28;20035;-79
2022/04/13 04:46:40;;;;;;;9.00;5.75;;;;;;;10.93;69.25;101263.06;4975055;28;20041;-79
2022/04/13 04:49:06;;;;;;;13.75;5.97;;;;;;;10.86;69.68;101264.06;4979594;28;20035;-78
2022/04/13 04:51:31;;;;;;;11.35;5.43;;;;;;;10.83;70.04;101266.75;4987291;28;20031;-79
2022/04/13 04:53:58;;;;;;;10.27;5.30;;;;;;;10.77;69.97;101272.91;4964793;28;20033;-79
2022/04/13 04:56:23;;;;;;;11.00;5.15;;;;;;;10.72;70.09;101277.38;4973864;28;20031;-79
2022/04/13 04:58:48;;;;;;;16.02;5.78;;;;;;;10.68;70.63;101286.13;4975135;28;20043;-79
2022/04/13 05:01:13;;;;;;;15.38;5.75;;;;;;;10.65;70.33;101287.94;4976162;28;20508;-78
2022/04/13 05:03:39;;;;;;;11.15;5.35;;;;;;;10.61;70.75;101285.38;4978322;28;20035;-78
2022/04/13 05:06:04;;;;;;;9.13;5.22;;;;;;;10.60;70.86;101295.78;4973770;28;20022;-79
2022/04/13 05:08:29;;;;;;;12.60;5.50;;;;;;;10.54;70.18;101294.16;4980956;28;20077;-79
2022/04/13 05:10:54;;;;;;;8.65;5.13;;;;;;;10.45;70.41;101297.78;4980803;28;20034;-79
2022/04/13 05:13:20;;;;;;;9.43;5.63;;;;;;;10.41;71.03;101301.34;4973472;28;20038;-79
2022/04/13 05:15:46;;;;;;;9.95;5.63;;;;;;;10.39;71.63;101304.84;4974695;28;20034;-78
2022/04/13 05:18:12;;;;;;;8.73;5.55;;;;;;;10.42;72.10;101312.59;4974132;28;20038;-79
2022/04/13 05:20:38;;;;;;;11.25;6.32;;;;;;;10.45;73.03;101308.19;4973803;28;20034;-79
2022/04/13 05:23:04;;;;;;;10.80;6.03;;;;;;;10.52;73.05;101315.91;4976227;28;20027;-79
2022/04/13 05:25:29;;;;;;;12.38;5.90;;;;;;;10.56;71.03;101314.97;4973830;28;20037;-79
2022/04/13 05:27:55;;;;;;;13.57;6.20;;;;;;;10.55;71.73;101321.06;4973861;28;20037;-79
2022/04/13 05:30:20;;;;;;;15.35;6.10;;;;;;;10.56;72.32;101325.38;4957470;28;20073;-79
2022/04/13 05:32:46;;;;;;;15.63;7.57;;;;;;;10.61;72.78;101319.19;4990251;28;20533;-79
2022/04/13 05:35:11;;;;;;;14.10;6.88;;;;;;;10.68;73.48;101322.53;4973534;28;20027;-79
2022/04/13 05:37:36;;;;;;;14.23;6.68;;;;;;;10.76;73.65;101328.44;4973226;28;20065;-79
2022/04/13 05:40:01;;;;;;;13.20;6.90;;;;;;;10.88;73.46;101329.13;4979359;28;20042;-79
2022/04/13 05:42:27;;;;;;;17.50;7.35;;;;;;;10.96;73.09;101329.81;4973585;28;20057;-79
2022/04/13 05:44:52;;;;;;;15.05;6.80;;;;;;;11.04;72.58;101333.13;4974977;28;20105;-79
2022/04/13 05:47:18;;;;;;;14.07;6.70;;;;;;;11.13;72.45;101328.63;4973640;28;20034;-79
2022/04/13 05:49:43;;;;;;;13.63;7.78;;;;;;;11.20;72.81;101328.47;4973631;28;20162;-79
2022/04/13 05:52:09;;;;;;;13.80;7.10;;;;;;;11.30;73.11;101336.09;4955982;28;20027;-79
2022/04/13 05:54:34;;;;;;;15.70;8.00;;;;;;;11.40;73.68;101340.22;4973319;28;20038;-79
2022/04/13 05:57:02;;;;;;;13.43;7.35;;;;;;;11.48;73.64;101340.06;4973182;28;20038;-79
2022/04/13 05:59:28;;;;;;;16.55;8.35;;;;;;;11.60;74.15;101346.75;4959641;28;20031;-79
2022/04/13 06:01:53;;;;;;;13.43;8.20;;;;;;;11.69;73.55;101350.03;4975499;28;20027;-79
2022/04/13 06:04:18;;;;;;;17.20;8.65;;;;;;;11.78;74.17;101346.34;4984048;28;20034;-79
2022/04/13 06:06:44;;;;;;;15.02;8.38;;;;;;;11.87;73.76;101347.03;4992461;28;20038;-79
2022/04/13 06:09:09;;;;;;;15.27;8.65;;;;;;;11.95;72.60;101352.94;4977183;28;20034;-79
2022/04/13 06:11:34;;;;;;;12.35;8.57;;;;;;;12.03;73.30;101355.38;4972937;28;20046;-79
2022/04/13 06:13:59;;;;;;;17.20;8.45;;;;;;;12.11;72.39;101363.91;4978445;28;20057;-79
2022/04/13 06:16:25;;;;;;;16.33;9.40;;;;;;;12.16;72.09;101361.16;4989138;28;20038;-79
2022/04/13 06:18:50;;;;;;;18.98;9.02;;;;;;;12.20;72.35;101368.03;4991072;28;20023;-79
2022/04/13 06:21:15;;;;;;;16.70;9.23;;;;;;;12.25;71.71;101369.63;4991879;28;20446;-79
2022/04/13 06:23:41;;;;;;;17.60;9.35;;;;;;;12.27;72.35;101373.06;4984147;28;20041;-79
2022/04/13 06:26:06;;;;;;;15.68;9.73;;;;;;;12.32;72.83;101377.28;4973387;28;20039;-79
2022/04/13 06:28:31;;;;;;;18.98;9.85;;;;;;;12.35;72.51;101380.72;4978474;28;20446;-79
2022/04/13 06:30:58;;;;;;;14.68;9.40;;;;;;;12.39;72.36;101373.66;4972897;28;20031;-79
2022/04/13 06:33:23;;;;;;;15.63;9.80;;;;;;;12.44;72.73;101377.84;4972792;28;20085;-79
2022/04/13 06:35:48;;;;;;;14.45;9.50;;;;;;;12.49;72.15;101371.66;4990778;28;20470;-79
2022/04/13 06:38:13;;;;;;;18.45;10.70;;;;;;;12.53;72.21;101379.38;4992224;28;20026;-79
2022/04/13 06:40:39;;;;;;;20.70;10.73;;;;;;;12.58;71.99;101380.13;4983704;28;20489;-79
2022/04/13 06:43:04;;;;;;;18.17;10.00;;;;;;;12.62;72.44;101385.28;4973549;28;20037;-79
2022/04/13 06:45:29;;;;;;;21.33;11.18;;;;;;;12.68;72.13;101379.88;4972684;28;20081;-79
2022/04/13 06:47:55;;;;;;;17.80;11.15;;;;;;;12.73;72.10;101384.06;4972597;28;20121;-79
2022/04/13 06:50:20;;;;;;;17.67;11.07;;;;;;;12.79;71.65;101380.47;4972460;28;20035;-79
2022/04/13 06:52:45;;;;;;;18.33;11.10;;;;;;;12.86;72.55;101384.63;4972942;28;20027;-79
2022/04/13 06:55:11;;;;;;;18.60;11.15;;;;;;;12.93;72.11;101384.47;4955307;28;20054;-79
2022/04/13 06:57:40;;;;;;;16.58;11.02;;;;;;;12.99;72.11;101399.94;4972569;28;20025;-79
2022/04/13 07:00:10;;;;;;;15.88;11.55;;;;;;;13.04;72.43;101408.53;4973769;28;20521;-79
2022/04/13 07:02:36;;;;;;;18.85;11.80;;;;;;;13.09;71.92;101411.00;4975624;28;20133;-79
2022/04/13 07:05:03;;;;;;;18.00;11.63;;;;;;;13.10;71.56;101413.59;4973390;28;20415;-79
2022/04/13 07:07:28;;;;;;;15.32;11.23;;;;;;;13.16;72.19;101421.25;4955020;28;20049;-79
2022/04/13 07:09:53;;;;;;;19.90;12.80;;;;;;;13.23;71.52;101428.94;4955740;28;20478;-79
2022/04/13 07:12:19;;;;;;;19.83;11.80;;;;;;;13.29;71.55;101426.16;4985847;28;20023;-79
2022/04/13 07:14:44;;;;;;;17.75;12.43;;;;;;;13.34;71.33;101437.31;4975497;28;20035;-79
2022/04/13 07:17:09;;;;;;;22.48;12.73;;;;;;;13.35;71.24;101433.81;4973186;28;20031;-79
2022/04/13 07:19:35;;;;;;;19.95;12.80;;;;;;;13.41;71.20;101432.84;4980199;28;20027;-79
2022/04/13 07:22:00;;;;;;;17.17;12.18;;;;;;;13.48;70.86;101436.97;4974307;28;20533;-79
2022/04/13 07:24:26;;;;;;;25.88;13.07;;;;;;;13.54;71.07;101446.38;4974016;28;20023;-79
2022/04/13 07:26:51;;;;;;;22.27;12.95;;;;;;;13.60;70.69;101459.31;4972347;28;20023;-80
2022/04/13 07:29:16;;;;;;;21.58;13.43;;;;;;;13.59;70.94;101463.66;4973863;28;20167;-79
2022/04/13 07:31:42;;;;;;;22.65;13.85;;;;;;;13.60;70.72;101464.53;4974523;28;20249;-79
2022/04/13 07:34:07;;;;;;;23.23;13.45;;;;;;;13.60;70.86;101475.81;4979534;28;20497;-79
2022/04/13 07:36:32;;;;;;;21.80;13.70;;;;;;;13.60;70.97;101472.38;4961081;28;20023;-79
2022/04/13 07:38:58;;;;;;;21.60;13.43;;;;;;;13.60;71.00;101470.59;4985492;28;20117;-79
2022/04/13 07:41:23;;;;;;;24.48;13.77;;;;;;;13.63;71.21;101469.69;4977097;28;20153;-79
2022/04/13 07:43:49;;;;;;;22.17;13.07;;;;;;;13.63;70.68;101473.13;4982015;28;20386;-80
2022/04/13 07:46:15;;;;;;;24.50;14.15;;;;;;;13.63;70.97;101480.97;4975848;28;20015;-79
2022/04/13 07:48:41;;;;;;;23.10;13.65;;;;;;;13.65;70.71;101479.19;4975602;28;20444;-79
2022/04/13 07:51:06;;;;;;;19.55;13.80;;;;;;;13.72;70.62;101484.25;4977579;28;20035;-79
2022/04/13 07:53:31;;;;;;;22.52;13.65;;;;;;;13.77;70.06;101480.59;4976548;28;20383;-79
2022/04/13 07:55:57;;;;;;;22.80;13.73;;;;;;;13.82;69.94;101480.44;4975301;28;20034;-79
2022/04/13 07:58:22;;;;;;;22.05;13.50;;;;;;;13.87;69.69;101472.47;4975489;28;20469;-79
2022/04/13 08:00:47;;;;;;;21.27;13.95;;;;;;;13.92;70.69;101470.56;4975250;28;20031;-79
2022/04/13 08:03:12;;;;;;;21.05;14.80;;;;;;;13.94;70.16;101474.00;4976697;28;20034;-79
2022/04/13 08:05:39;;;;;;;23.67;14.80;;;;;;;13.99;70.34;101481.72;4975575;28;20022;-79
2022/04/13 08:08:05;;;;;;;20.77;13.82;;;;;;;14.02;69.62;101485.09;4959449;28;20354;-79
2022/04/13 08:10:30;;;;;;;25.65;13.90;;;;;;;14.09;69.34;101497.09;4976724;28;20029;-79
2022/04/13 08:12:56;;;;;;;20.83;14.35;;;;;;;14.15;70.18;101492.59;4975085;28;20536;-79
2022/04/13 08:15:22;;;;;;;20.80;13.57;;;;;;;14.22;69.22;101491.47;4977779;28;20034;-79
2022/04/13 08:17:47;;;;;;;21.80;12.73;;;;;;;14.30;69.34;101499.09;4975154;28;20019;-80
2022/04/13 08:20:14;;;;;;;19.05;11.93;;;;;;;14.28;68.74;101496.53;4978656;28;20474;-79
2022/04/13 08:22:40;;;;;;;21.63;12.05;;;;;;;14.26;68.70;101503.56;4984534;28;20042;-80
2022/04/13 08:25:05;;;;;;;16.98;11.25;;;;;;;14.22;68.37;101509.81;4976638;28;20027;-79
2022/04/13 08:27:30;;;;;;;20.08;11.82;;;;;;;14.23;68.84;101506.28;4983177;28;20023;-79
2022/04/13 08:29:56;;;;;;;17.40;12.27;;;;;;;14.24;69.33;101502.75;4979770;28;20060;-80
2022/04/13 08:32:22;;;;;;;16.50;10.70;;;;;;;14.25;68.79;101504.47;4975901;28;20023;-79
2022/04/13 08:34:52;;;;;;;19.20;12.02;;;;;;;14.27;68.65;101502.66;4982947;28;20026;-79
2022/04/13 08:37:20;;;;;;;17.52;11.25;;;;;;;14.30;68.60;101509.56;4977002;28;20102;-80
2022/04/13 08:39:45;;;;;;;22.58;11.43;;;;;;;14.32;68.83;101507.75;4982104;28;20029;-80
2022/04/13 08:42:29;;;;;;;18.23;11.05;;;;;;;14.39;68.07;101512.75;4979185;28;20066;-80
2022/04/13 08:44:58;;;;;;;18.38;10.70;;;;;;;14.44;67.99;101514.38;4981214;28;20058;-80
2022/04/13 08:47:24;;;;;;;17.17;11.05;;;;;;;14.54;68.38;101521.03;4975379;28;20065;-80
2022/04/13 08:49:52;;;;;;;22.08;10.88;;;;;;;14.66;67.82;101523.28;4978238;28;20053;-81
2022/04/13 08:52:28;;;;;;;21.02;10.48;;;;;;;14.79;67.90;101515.06;4982330;28;20426;-80
2022/04/13 08:55:05;;;;;;;16.23;9.80;;;;;;;14.89;66.66;101519.06;4980230;28;20054;-81
2022/04/13 08:57:36;;;;;;;17.50;10.98;;;;;;;14.94;66.93;101530.25;4956164;28;20165;-80
2022/04/13 09:00:11;;;;;;;15.30;9.88;;;;;;;14.99;66.68;101540.59;4975875;28;20018;-80
2022/04/13 09:03:03;;;;;;;16.92;10.32;;;;;;;14.99;66.44;101532.72;4977954;28;20123;-80
2022/04/13 09:05:32;;;;;;;16.35;10.45;;;;;;;14.98;66.15;101537.13;4980267;28;20031;-80
2022/04/13 09:08:23;;;;;;;15.88;10.65;;;;;;;15.00;66.23;101537.06;4978105;28;20019;-80
2022/04/13 09:10:52;;;;;;;16.13;10.70;;;;;;;15.03;66.27;101540.44;4979098;28;20034;-79
2022/04/13 09:13:19;;;;;;;18.63;10.57;;;;;;;15.15;66.70;101536.53;4978125;28;20025;-79
2022/04/13 09:15:45;;;;;;;18.95;10.35;;;;;;;15.36;67.39;101543.75;4974974;28;20501;-79
2022/04/13 09:18:11;;;;;;;18.95;11.45;;;;;;;15.51;66.28;101530.09;4976982;28;20022;-78
2022/04/13 09:20:38;;;;;;;16.65;11.10;;;;;;;15.62;65.13;101533.19;4975922;28;20026;-79
2022/04/13 09:23:04;;;;;;;21.63;11.40;;;;;;;15.72;65.74;101530.22;4978521;28;20030;-79
2022/04/13 09:25:31;;;;;;;15.98;10.48;;;;;;;15.88;65.75;101539.28;4975283;28;20041;-79
2022/04/13 09:27:58;;;;;;;17.13;10.35;;;;;;;15.98;64.34;101538.94;4984367;28;20022;-79
2022/04/13 09:30:23;;;;;;;14.45;10.20;;;;;;;16.05;64.46;101546.53;4976095;28;20079;-79
2022/04/13 09:32:50;;;;;;;14.55;10.57;;;;;;;16.17;64.04;101557.47;4980820;28;20715;-79
2022/04/13 09:35:16;;;;;;;17.38;11.15;;;;;;;16.21;63.76;101557.31;4993008;28;20027;-79
2022/04/13 09:37:41;;;;;;;19.50;10.27;;;;;;;16.21;63.96;101557.31;4988028;28;20030;-80
2022/04/13 09:40:07;;;;;;;15.02;10.20;;;;;;;16.26;63.62;101564.13;4974086;28;20033;-79
2022/04/13 09:42:34;;;;;;;15.70;10.68;;;;;;;16.29;63.81;101557.00;4974361;28;20023;-80
2022/04/13 09:45:03;;;;;;;17.83;10.80;;;;;;;16.35;64.70;101566.44;4975048;28;20031;-79
2022/04/13 09:47:30;;;;;;;15.32;9.52;;;;;;;16.31;62.77;101572.69;4978669;28;20481;-80
2022/04/13 09:49:56;;;;;;;15.30;9.15;;;;;;;16.22;63.33;101572.16;4978149;28;20430;-79
2022/04/13 09:52:41;;;;;;;14.50;9.80;;;;;;;16.18;63.68;101572.31;4977951;28;20142;-79
2022/04/13 09:55:08;;;;;;;15.35;9.77;;;;;;;16.11;63.46;101571.69;4980164;28;20065;-80
2022/04/13 09:57:34;;;;;;;15.90;9.82;;;;;;;16.09;63.83;101573.50;4977010;28;20034;-79
2022/04/13 10:00:02;;;;;;;22.20;10.73;;;;;;;16.11;64.41;101576.94;4976164;28;20031;-79
2022/04/13 10:02:39;;;;;;;20.15;10.10;;;;;;;16.10;63.89;101580.47;4977287;28;20124;-79
2022/04/13 10:05:06;;;;;;;19.77;10.95;;;;;;;16.05;64.03;101579.81;4977465;28;20149;-79
2022/04/13 10:07:31;;;;;;;17.42;11.02;;;;;;;16.01;63.71;101580.81;4977703;28;20031;-80
2022/04/13 10:09:56;;;;;;;16.60;10.70;;;;;;;15.97;64.09;101579.22;4975923;28;20038;-79
2022/04/13 10:12:22;;;;;;;19.77;11.75;;;;;;;15.95;64.56;101578.41;4975141;28;20042;-79
2022/04/13 10:14:47;;;;;;;20.92;12.18;;;;;;;15.95;64.32;101588.91;4976844;28;20047;-79
2022/04/13 10:17:13;;;;;;;21.90;12.63;;;;;;;15.92;64.54;101588.09;4976089;28;20026;-79
2022/04/13 10:19:43;;;;;;;22.65;11.63;;;;;;;15.89;63.98;101593.44;4978301;28;20050;-79
2022/04/13 10:22:09;;;;;;;16.38;11.55;;;;;;;15.83;64.38;101588.41;4972798;28;20031;-80
2022/04/13 10:24:35;;;;;;;18.15;12.02;;;;;;;15.78;64.29;101579.84;4972800;28;20241;-79
2022/04/13 10:27:09;;;;;;;16.52;12.20;;;;;;;15.75;65.22;101585.19;4973210;28;20037;-79
2022/04/13 10:29:37;;;;;;;18.10;12.52;;;;;;;15.75;65.35;101583.44;4984870;28;20031;-79
2022/04/13 10:32:06;;;;;;;19.38;12.70;;;;;;;15.79;65.15;101581.56;4958683;28;20092;-79
2022/04/13 10:34:34;;;;;;;18.10;12.73;;;;;;;15.85;64.81;101581.38;4973639;28;20117;-79
2022/04/13 10:37:00;;;;;;;18.88;13.18;;;;;;;15.86;64.76;101587.47;4974592;28;20038;-79
2022/04/13 10:39:25;;;;;;;20.83;13.90;;;;;;;15.87;66.08;101586.56;4973696;28;20049;-79
2022/04/13 10:41:50;;;;;;;19.10;13.52;;;;;;;15.86;64.74;101588.34;4974769;28;20019;-79
2022/04/13 10:44:23;;;;;;;19.48;13.60;;;;;;;15.83;64.83;101587.53;4986626;28;20113;-80
2022/04/13 10:46:52;;;;;;;21.20;13.98;;;;;;;15.77;64.86;101586.88;4956669;28;20442;-80
2022/04/13 10:49:23;;;;;;;19.40;13.32;;;;;;;15.74;65.03;101588.72;4980359;28;20057;-79
2022/04/13 10:51:53;;;;;;;22.33;14.00;;;;;;;15.74;65.42;101596.59;4975268;28;20037;-79
2022/04/13 10:54:23;;;;;;;18.45;13.60;;;;;;;15.75;65.50;101595.69;4976922;28;20026;-80
2022/04/13 10:56:56;;;;;;;18.58;13.43;;;;;;;15.76;64.99;101603.53;4960764;28;20117;-80
2022/04/13 10:59:36;;;;;;;20.10;13.77;;;;;;;15.76;64.95;101603.53;4976875;28;20022;-80
2022/04/13 11:02:24;;;;;;;21.30;13.30;;;;;;;15.77;65.52;101605.25;4978112;28;20113;-80
2022/04/13 11:04:50;;;;;;;16.60;12.75;;;;;;;15.83;66.15;101603.28;4961618;28;20061;-79
2022/04/13 11:07:17;;;;;;;14.35;10.82;;;;;;;15.87;64.79;101608.44;4976897;28;20478;-80
2022/04/13 11:09:44;;;;;;;15.02;10.25;;;;;;;15.87;64.72;101616.31;4980387;28;20081;-80
2022/04/13 11:12:10;;;;;;;16.17;9.80;;;;;;;15.83;64.55;101619.91;4979939;28;20058;-80
2022/04/13 11:15:02;;;;;;;13.68;9.65;;;;;;;15.82;64.63;101622.56;4979297;28;20116;-79
2022/04/13 11:17:27;;;;;;;14.50;9.43;;;;;;;15.80;65.02;101625.25;4976383;28;20022;-79
2022/04/13 11:20:13;;;;;;;15.00;9.50;;;;;;;15.82;65.01;101620.81;4976996;28;20161;-79
2022/04/13 11:22:38;;;;;;;16.90;9.80;;;;;;;15.84;64.67;101611.13;4976361;28;20510;-79
2022/04/13 11:25:03;;;;;;;16.05;10.45;;;;;;;15.90;65.32;101621.41;4975753;28;20027;-79
2022/04/13 11:27:49;;;;;;;18.55;11.98;;;;;;;15.93;64.68;101631.81;4979994;28;20034;-79
2022/04/13 11:30:14;;;;;;;15.95;11.18;;;;;;;15.92;64.66;101630.09;4982389;28;20101;-79
2022/04/13 11:32:40;;;;;;;22.92;11.48;;;;;;;15.90;65.12;101631.91;4984468;28;20203;-79
2022/04/13 11:35:06;;;;;;;15.13;10.85;;;;;;;15.87;64.70;101626.78;4981503;28;20348;-79
2022/04/13 11:37:34;;;;;;;14.15;10.10;;;;;;;15.86;64.49;101630.31;4980606;28;20398;-79
2022/04/13 11:40:03;;;;;;;16.35;10.93;;;;;;;15.86;65.01;101632.94;4961226;28;20038;-79
2022/04/13 11:42:28;;;;;;;17.25;10.73;;;;;;;15.88;64.82;101633.75;4958673;28;20026;-80
2022/04/13 11:45:13;;;;;;;16.70;10.77;;;;;;;15.90;64.69;101631.91;4976546;28;20085;-80
2022/04/13 11:47:45;;;;;;;13.27;9.60;;;;;;;15.91;64.69;101638.88;4975338;28;20054;-80
2022/04/13 11:50:14;;;;;;;16.33;10.43;;;;;;;15.91;65.62;101638.88;4981275;28;20033;-80
2022/04/13 11:53:12;;;;;;;18.85;10.50;;;;;;;15.95;64.54;101638.75;4975478;28;20042;-80
2022/04/13 11:55:40;;;;;;;13.07;9.70;;;;;;;15.97;65.12;101636.94;4977639;28;20026;-80
2022/04/13 11:58:07;;;;;;;15.32;9.70;;;;;;;15.97;65.20;101642.19;4980792;28;20089;-80
2022/04/13 12:00:41;;;;;;;14.77;10.30;;;;;;;15.93;64.93;101655.41;4980652;28;20030;-80
2022/04/13 12:03:12;;;;;;;15.70;10.70;;;;;;;15.89;65.51;101651.19;4977409;28;20093;-80